createdAt,value
2023-04-06T00:02:05.616Z,98422.94
2023-04-06T00:04:34.947Z,98419.16
2023-04-06T00:07:04.398Z,98419.69
2023-04-06T00:09:33.747Z,98418.34
2023-04-06T00:12:03.141Z,98410.50
2023-04-06T00:14:32.466Z,98408.06
2023-04-06T00:17:01.766Z,98406.16
2023-04-06T00:19:31.432Z,98406.94
2023-04-06T00:22:00.932Z,98396.44
2023-04-06T00:24:30.480Z,98379.34
2023-04-06T00:26:59.713Z,98388.44
2023-04-06T00:29:29.043Z,98394.25
2023-04-06T00:31:58.309Z,98379.94
2023-04-06T00:34:27.624Z,98384.94
2023-04-06T00:36:56.851Z,98390.59
2023-04-06T00:39:26.196Z,98389.13
2023-04-06T00:41:57.645Z,98391.81
2023-04-06T00:44:27.933Z,98382.25
2023-04-06T00:46:57.250Z,98386.81
2023-04-06T00:49:26.572Z,98385.19
2023-04-06T00:51:55.986Z,98388.56
2023-04-06T00:54:25.949Z,98384.25
2023-04-06T00:56:56.515Z,98384.13
2023-04-06T00:59:30.971Z,98373.16
2023-04-06T01:02:01.936Z,98379.69
2023-04-06T01:04:41.085Z,98385.06
2023-04-06T01:07:15.691Z,98378.13
2023-04-06T01:09:55.595Z,98385.78
2023-04-06T01:12:28.545Z,98376.31
2023-04-06T01:14:58.049Z,98373.06
2023-04-06T01:17:29.784Z,98371.59
2023-04-06T01:20:03.709Z,98375.50
2023-04-06T01:22:34.961Z,98373.88
2023-04-06T01:25:06.858Z,98367.41
2023-04-06T01:27:53.902Z,98360.75
2023-04-06T01:30:26.806Z,98361.19
2023-04-06T01:33:03.312Z,98355.81
2023-04-06T01:36:01.412Z,98359.59
2023-04-06T01:38:31.344Z,98350.44
2023-04-06T01:41:00.850Z,98358.78
2023-04-06T01:43:35.857Z,98359.59
2023-04-06T01:46:11.835Z,98352.06
2023-04-06T01:48:44.360Z,98361.22
2023-04-06T01:51:22.104Z,98355.03
2023-04-06T01:54:01.243Z,98344.53
2023-04-06T01:56:52.517Z,98358.03
2023-04-06T01:59:34.989Z,98347.53
2023-04-06T02:02:10.055Z,98333.19
2023-04-06T02:04:41.180Z,98341.81
2023-04-06T02:07:13.710Z,98346.94
2023-04-06T02:09:43.652Z,98339.13
2023-04-06T02:12:20.242Z,98335.47
2023-04-06T02:14:49.539Z,98333.31
2023-04-06T02:17:19.051Z,98337.03
2023-04-06T02:19:48.323Z,98333.13
2023-04-06T02:22:17.592Z,98328.63
2023-04-06T02:24:47.799Z,98328.75
2023-04-06T02:27:17.212Z,98326.31
2023-04-06T02:29:49.848Z,98323.88
2023-04-06T02:32:22.796Z,98323.47
2023-04-06T02:34:52.776Z,98321.19
2023-04-06T02:37:25.102Z,98317.94
2023-04-06T02:39:55.078Z,98317.94
2023-04-06T02:42:24.698Z,98314.56
2023-04-06T02:44:55.351Z,98311.47
2023-04-06T02:47:28.486Z,98293.59
2023-04-06T02:49:57.855Z,98302.38
2023-04-06T02:52:27.344Z,98304.91
2023-04-06T02:54:56.972Z,98302.56
2023-04-06T02:57:30.533Z,98298.66
2023-04-06T02:59:59.760Z,98311.00
2023-04-06T03:02:36.984Z,98300.75
2023-04-06T03:05:11.320Z,98305.09
2023-04-06T03:07:44.974Z,98305.34
2023-04-06T03:10:24.666Z,98310.22
2023-04-06T03:12:57.743Z,98295.59
2023-04-06T03:15:47.606Z,98291.53
2023-04-06T03:18:24.321Z,98302.41
2023-04-06T03:20:55.130Z,98305.09
2023-04-06T03:23:28.512Z,98297.91
2023-04-06T03:26:03.010Z,98301.84
2023-04-06T03:28:32.767Z,98289.28
2023-04-06T03:31:07.392Z,98293.59
2023-04-06T03:34:09.034Z,98297.09
2023-04-06T03:36:39.243Z,98288.28
2023-04-06T03:39:08.984Z,98291.47
2023-04-06T03:41:42.899Z,98297.53
2023-04-06T03:44:28.222Z,98285.53
2023-04-06T03:46:57.599Z,98304.72
2023-04-06T03:49:27.748Z,98285.78
2023-04-06T03:51:57.865Z,98293.34
2023-04-06T03:54:27.197Z,98292.16
2023-04-06T03:56:58.627Z,98279.06
2023-04-06T03:59:29.681Z,98277.34
2023-04-06T04:01:59.035Z,98279.06
2023-04-06T04:04:28.396Z,98289.84
2023-04-06T04:06:57.840Z,98291.34
2023-04-06T04:09:29.853Z,98287.75
2023-04-06T04:11:59.215Z,98287.75
2023-04-06T04:14:28.469Z,98287.84
2023-04-06T04:16:57.762Z,98300.47
2023-04-06T04:19:27.071Z,98293.53
2023-04-06T04:21:57.692Z,98284.34
2023-04-06T04:24:34.339Z,98278.78
2023-04-06T04:27:03.993Z,98284.59
2023-04-06T04:29:35.812Z,98283.66
2023-04-06T04:32:09.313Z,98272.03
2023-04-06T04:34:41.388Z,98281.81
2023-04-06T04:37:14.567Z,98277.44
2023-04-06T04:39:52.450Z,98285.59
2023-04-06T04:42:21.959Z,98278.59
2023-04-06T04:44:54.735Z,98276.47
2023-04-06T04:47:35.581Z,98294.81
2023-04-06T04:50:06.483Z,98272.47
2023-04-06T04:52:36.537Z,98265.47
2023-04-06T04:55:19.662Z,98253.63
2023-04-06T04:57:52.503Z,98268.31
2023-04-06T05:00:27.027Z,98252.25
2023-04-06T05:06:39.877Z,98244.66
2023-04-06T05:09:11.032Z,98254.97
2023-04-06T05:12:07.451Z,98263.97
2023-04-06T05:14:43.634Z,98246.72
2023-04-06T05:17:17.662Z,98254.63
2023-04-06T05:19:47.586Z,98239.63
2023-04-06T05:22:23.195Z,98237.38
2023-04-06T05:25:03.639Z,98251.59
2023-04-06T05:27:34.329Z,98254.03
2023-04-06T05:30:09.531Z,98241.75
2023-04-06T05:32:45.462Z,98233.78
2023-04-06T05:35:15.742Z,98233.38
2023-04-06T05:37:48.576Z,98239.03
2023-04-06T05:40:20.737Z,98219.03
2023-04-06T05:42:50.635Z,98209.16
2023-04-06T05:45:21.647Z,98226.03
2023-04-06T05:47:57.088Z,98210.31
2023-04-06T05:50:30.534Z,98217.28
2023-04-06T05:53:01.362Z,98214.56
2023-04-06T05:55:37.300Z,98212.47
2023-04-06T05:58:18.398Z,98203.63
2023-04-06T06:00:48.222Z,98206.25
2023-04-06T06:03:21.431Z,98198.81
2023-04-06T06:06:00.968Z,98194.00
2023-04-06T06:08:35.999Z,98194.31
2023-04-06T06:11:12.920Z,98189.50
2023-04-06T06:13:43.182Z,98186.25
2023-04-06T06:16:14.117Z,98190.25
2023-04-06T06:18:48.114Z,98185.22
2023-04-06T06:21:18.283Z,98187.59
2023-04-06T06:23:50.348Z,98171.84
2023-04-06T06:26:23.864Z,98171.44
2023-04-06T06:28:53.499Z,98175.22
2023-04-06T06:31:23.990Z,98171.72
2023-04-06T06:33:53.694Z,98169.47
2023-04-06T06:36:24.016Z,98163.06
2023-04-06T06:38:53.324Z,98164.69
2023-04-06T06:41:24.047Z,98160.81
2023-04-06T06:43:53.442Z,98164.41
2023-04-06T06:46:23.066Z,98158.56
2023-04-06T06:48:52.377Z,98153.69
2023-04-06T06:51:21.618Z,98157.19
2023-04-06T06:53:50.882Z,98151.94
2023-04-06T06:56:20.148Z,98150.72
2023-04-06T06:58:49.403Z,98146.91
2023-04-06T07:01:18.831Z,98149.81
2023-04-06T07:03:48.195Z,98148.47
2023-04-06T07:06:17.513Z,98147.47
2023-04-06T07:08:46.848Z,98155.22
2023-04-06T07:11:16.126Z,98141.59
2023-04-06T07:13:45.360Z,98145.06
2023-04-06T07:16:14.775Z,98144.69
2023-04-06T07:18:44.024Z,98136.47
2023-04-06T07:21:13.403Z,98134.19
2023-04-06T07:23:47.853Z,98144.47
2023-04-06T07:26:20.369Z,98144.38
2023-04-06T07:28:49.767Z,98145.25
2023-04-06T07:31:20.431Z,98142.53
2023-04-06T07:33:51.129Z,98142.78
2023-04-06T07:36:21.797Z,98138.72
2023-04-06T07:38:52.048Z,98126.91
2023-04-06T07:41:21.581Z,98137.53
2023-04-06T07:43:51.109Z,98134.69
2023-04-06T07:46:20.940Z,98126.59
2023-04-06T07:48:51.490Z,98123.06
2023-04-06T07:51:20.823Z,98126.31
2023-04-06T07:53:52.217Z,98122.69
2023-04-06T07:56:22.880Z,98126.94
2023-04-06T07:58:54.387Z,98117.34
2023-04-06T08:01:23.956Z,98121.59
2023-04-06T08:03:53.734Z,98124.06
2023-04-06T08:06:23.108Z,98121.53
2023-04-06T08:08:52.407Z,98121.00
2023-04-06T08:11:21.820Z,98115.66
2023-04-06T08:13:51.483Z,98099.63
2023-04-06T08:16:21.845Z,98107.47
2023-04-06T08:19:17.832Z,98097.81
2023-04-06T08:21:48.565Z,98100.81
2023-04-06T08:24:18.060Z,98097.03
2023-04-06T08:26:47.372Z,98105.63
2023-04-06T08:29:17.279Z,98102.22
2023-04-06T08:31:46.551Z,98097.41
2023-04-06T08:34:16.490Z,98096.22
2023-04-06T08:36:47.121Z,98097.81
2023-04-06T08:39:17.884Z,98090.19
2023-04-06T08:41:53.474Z,98100.63
2023-04-06T08:44:23.161Z,98096.44
2023-04-06T08:46:54.016Z,98089.56
2023-04-06T08:49:25.226Z,98098.03
2023-04-06T08:51:56.618Z,98101.44
2023-04-06T08:54:26.458Z,98084.16
2023-04-06T08:57:00.473Z,98095.00
2023-04-06T08:59:33.331Z,98096.22
2023-04-06T09:02:06.452Z,98098.00
2023-04-06T09:04:40.456Z,98083.38
2023-04-06T09:07:10.056Z,98093.38
2023-04-06T09:09:44.536Z,98100.19
2023-04-06T09:12:33.250Z,98099.81
2023-04-06T09:15:06.340Z,98079.94
2023-04-06T09:17:37.874Z,98083.75
2023-04-06T09:20:08.396Z,98095.16
2023-04-06T09:22:44.575Z,98076.88
2023-04-06T09:25:24.937Z,98080.25
2023-04-06T09:28:04.064Z,98085.66
2023-04-06T09:30:35.983Z,98078.22
2023-04-06T09:33:05.324Z,98075.97
2023-04-06T09:35:36.665Z,98078.81
2023-04-06T09:38:16.620Z,98079.22
2023-04-06T09:41:00.080Z,98060.28
2023-04-06T09:43:32.454Z,98066.03
2023-04-06T09:46:05.011Z,98075.59
2023-04-06T09:48:36.300Z,98067.81
2023-04-06T09:51:08.080Z,98064.84
2023-04-06T09:53:40.232Z,98082.84
2023-04-06T09:56:14.223Z,98066.16
2023-04-06T09:58:46.880Z,98060.41
2023-04-06T10:01:21.801Z,98064.06
2023-04-06T10:03:56.277Z,98063.75
2023-04-06T10:06:29.707Z,98067.00
2023-04-06T10:08:59.107Z,98047.69
2023-04-06T10:11:29.903Z,98045.09
2023-04-06T10:13:59.444Z,98050.06
2023-04-06T10:16:30.507Z,98041.31
2023-04-06T10:19:25.492Z,98034.66
2023-04-06T10:21:59.213Z,98042.91
2023-04-06T10:25:39.091Z,98010.94
2023-04-06T10:28:10.528Z,98013.59
2023-04-06T10:30:46.711Z,98028.09
2023-04-06T10:33:17.881Z,98012.94
2023-04-06T10:35:47.723Z,98021.31
2023-04-06T10:38:22.089Z,98023.50
2023-04-06T10:40:51.423Z,98020.00
2023-04-06T10:43:22.631Z,98013.00
2023-04-06T10:46:01.300Z,98015.63
2023-04-06T10:48:47.861Z,98010.66
2023-04-06T10:51:19.556Z,98011.78
2023-04-06T10:53:50.043Z,98011.00
2023-04-06T10:56:23.522Z,98012.66
2023-04-06T10:58:54.406Z,98005.84
2023-04-06T11:01:26.101Z,98015.03
2023-04-06T11:04:00.235Z,98013.69
2023-04-06T11:06:32.534Z,98014.59
2023-04-06T11:09:01.892Z,98007.47
2023-04-06T11:11:31.292Z,97999.28
2023-04-06T11:14:02.183Z,98006.91
2023-04-06T11:16:33.975Z,98009.66
2023-04-06T11:19:05.070Z,98016.09
2023-04-06T11:21:36.644Z,98006.47
2023-04-06T11:24:21.039Z,98016.31
2023-04-06T11:26:54.330Z,98003.25
2023-04-06T11:29:28.359Z,98024.19
2023-04-06T11:32:03.273Z,98022.53
2023-04-06T11:34:39.823Z,98022.59
2023-04-06T11:37:13.134Z,98012.59
2023-04-06T11:39:52.905Z,98021.41
2023-04-06T11:42:27.463Z,98017.66
2023-04-06T11:45:06.359Z,98030.94
2023-04-06T11:47:37.597Z,98036.97
2023-04-06T11:50:09.656Z,98016.84
2023-04-06T11:52:41.254Z,98029.50
2023-04-06T11:55:19.707Z,98031.72
2023-04-06T11:57:51.668Z,98013.50
2023-04-06T12:00:22.927Z,98030.41
2023-04-06T12:02:52.643Z,98012.97
2023-04-06T12:05:22.120Z,98031.59
2023-04-06T12:12:07.357Z,98007.16
2023-04-06T12:14:36.735Z,98022.19
2023-04-06T12:17:21.368Z,98021.38
2023-04-06T12:19:53.275Z,98025.41
2023-04-06T12:22:22.719Z,98044.66
2023-04-06T12:24:52.273Z,98034.78
2023-04-06T12:27:21.626Z,98056.78
2023-04-06T12:29:51.902Z,98057.31
2023-04-06T12:32:21.313Z,98052.44
2023-04-06T12:34:53.599Z,98062.88
2023-04-06T12:37:22.915Z,98062.66
2023-04-06T12:44:12.994Z,98058.59
2023-04-06T12:47:54.046Z,98059.69
2023-04-06T12:50:23.608Z,98065.56
2023-04-06T12:57:54.155Z,98060.88
2023-04-06T13:00:24.068Z,98070.56
2023-04-06T13:02:53.692Z,98062.94
2023-04-06T13:05:32.495Z,98058.19
2023-04-06T13:08:08.907Z,98060.25
2023-04-06T13:10:38.358Z,98045.69
2023-04-06T13:13:07.673Z,98058.53
2023-04-06T13:15:37.554Z,98049.47
2023-04-06T13:18:07.213Z,98059.09
2023-04-06T13:20:37.124Z,98060.34
2023-04-06T13:23:06.435Z,98053.56
2023-04-06T13:25:36.111Z,98040.72
2023-04-06T13:28:05.573Z,98041.16
2023-04-06T13:30:35.113Z,98041.31
2023-04-06T13:33:14.682Z,98038.72
2023-04-06T13:35:46.947Z,98041.06
2023-04-06T13:38:17.308Z,98034.63
2023-04-06T13:40:47.034Z,98033.13
2023-04-06T13:43:16.869Z,98042.69
2023-04-06T13:45:56.002Z,98035.38
2023-04-06T13:48:26.628Z,98028.31
2023-04-06T13:50:56.198Z,98028.59
2023-04-06T13:53:28.673Z,98028.59
2023-04-06T13:55:58.086Z,98032.91
2023-04-06T13:58:27.580Z,98012.69
2023-04-06T14:01:11.247Z,98012.94
2023-04-06T14:03:46.355Z,98010.56
2023-04-06T14:06:29.585Z,98011.66
2023-04-06T14:09:00.750Z,98012.34
2023-04-06T14:11:53.368Z,97994.81
2023-04-06T14:19:07.742Z,98007.19
2023-04-06T14:27:16.896Z,98013.13
2023-04-06T14:33:42.859Z,97996.09
2023-04-06T14:36:16.096Z,98013.91
2023-04-06T14:42:55.376Z,98006.03
2023-04-06T14:45:27.600Z,98002.59
2023-04-06T14:48:00.382Z,98000.19
2023-04-06T14:50:33.717Z,98021.53
2023-04-06T14:53:03.488Z,98018.25
2023-04-06T14:55:39.777Z,98034.06
2023-04-06T15:02:43.627Z,98019.13
2023-04-06T15:05:36.501Z,98010.34
2023-04-06T15:18:06.228Z,98028.88
2023-04-06T15:21:54.288Z,98021.00
2023-04-06T15:34:19.030Z,98027.22
2023-04-06T15:36:51.457Z,97999.84
2023-04-06T15:39:21.138Z,98009.25
2023-04-06T15:41:50.543Z,98009.78
2023-04-06T15:44:22.730Z,98007.06
2023-04-06T15:46:53.528Z,98006.56
2023-04-06T15:49:23.168Z,98011.38
2023-04-06T15:51:52.831Z,98020.78
2023-04-06T15:54:22.299Z,98018.75
2023-04-06T15:56:53.860Z,98021.94
2023-04-06T15:59:23.245Z,98021.41
2023-04-06T16:01:53.428Z,98023.03
2023-04-06T16:04:23.792Z,98032.03
2023-04-06T16:06:53.463Z,98023.81
2023-04-06T16:09:22.785Z,98026.25
2023-04-06T16:11:52.406Z,98031.72
2023-04-06T16:14:21.976Z,98024.72
2023-04-06T16:16:55.243Z,98037.09
2023-04-06T16:19:24.927Z,98023.94
2023-04-06T16:21:54.523Z,98037.56
2023-04-06T16:24:23.895Z,98034.47
2023-04-06T16:26:53.837Z,98029.38
2023-04-06T16:29:23.735Z,98028.56
2023-04-06T16:31:53.949Z,98031.91
2023-04-06T16:34:23.759Z,98034.56
2023-04-06T16:36:53.139Z,98043.31
2023-04-06T16:39:22.524Z,98019.59
2023-04-06T16:41:51.772Z,98039.00
2023-04-06T16:44:21.686Z,98037.38
2023-04-06T16:46:51.251Z,98032.78
2023-04-06T16:49:20.989Z,98036.13
2023-04-06T18:19:32.354Z,98117.53
2023-04-06T18:22:01.715Z,98106.88
2023-04-06T18:24:41.992Z,98089.81
2023-04-06T18:27:16.218Z,98069.59
2023-04-06T18:29:47.664Z,98051.22
2023-04-06T18:32:17.136Z,98111.44
2023-04-06T18:34:46.808Z,98053.16
2023-04-06T18:37:16.533Z,98057.66
2023-04-06T18:39:51.027Z,98093.19
2023-04-06T18:42:20.926Z,98044.28
2023-04-06T18:45:59.461Z,98044.13
2023-04-06T18:48:50.327Z,98047.50
2023-04-06T18:51:21.764Z,98082.03
2023-04-06T18:54:05.027Z,98074.59
2023-04-06T18:57:46.561Z,98093.03
2023-04-06T19:01:05.673Z,98099.16
2023-04-06T19:03:49.139Z,98056.22
2023-04-06T19:06:29.159Z,98053.66
2023-04-06T19:08:59.045Z,98067.84
2023-04-06T19:11:28.453Z,98040.75
2023-04-06T19:13:58.177Z,98072.03
2023-04-06T19:16:27.839Z,98082.06
2023-04-06T19:18:57.643Z,98071.72
2023-04-06T19:21:27.581Z,98070.25
2023-04-06T19:23:57.275Z,98071.06
2023-04-06T19:26:30.605Z,98074.31
2023-04-06T19:28:59.951Z,98074.16
2023-04-06T19:31:29.313Z,98068.97
2023-04-06T19:33:58.673Z,98067.34
2023-04-06T19:36:28.545Z,98070.59
2023-04-06T19:39:00.340Z,98069.13
2023-04-06T19:41:31.534Z,98065.22
2023-04-06T19:44:00.971Z,98067.81
2023-04-06T19:46:32.846Z,98068.59
2023-04-06T19:49:02.190Z,98060.72
2023-04-06T19:51:35.514Z,98058.59
2023-04-06T19:54:06.261Z,98059.88
2023-04-06T19:56:35.693Z,98069.06
2023-04-06T19:59:05.503Z,98062.25
2023-04-06T20:01:37.952Z,98074.56
2023-04-06T20:04:07.921Z,98058.38
2023-04-06T20:06:37.436Z,98057.44
2023-04-06T20:09:07.019Z,98062.63
2023-04-06T20:11:36.411Z,98056.13
2023-04-06T20:14:06.077Z,98050.47
2023-04-06T20:16:35.514Z,98040.44
2023-04-06T20:19:04.909Z,98045.56
2023-04-06T20:21:34.148Z,98057.34
2023-04-06T20:24:03.613Z,98047.63
2023-04-06T20:26:33.972Z,98049.53
2023-04-06T20:29:03.358Z,98044.31
2023-04-06T20:31:34.133Z,98032.31
2023-04-06T20:34:05.618Z,98035.56
2023-04-06T20:36:35.866Z,98021.97
2023-04-06T20:39:05.252Z,98047.31
2023-04-06T20:41:34.981Z,98037.78
2023-04-06T20:44:04.278Z,98042.22
2023-04-06T20:46:35.479Z,98040.47
2023-04-06T20:49:04.981Z,98044.03
2023-04-06T20:51:37.388Z,98043.72
2023-04-06T20:54:06.884Z,98039.19
2023-04-06T20:56:36.217Z,98041.09
2023-04-06T20:59:06.353Z,98027.25
2023-04-06T21:01:35.965Z,98043.03
2023-04-06T21:04:05.957Z,98035.16
2023-04-06T21:06:37.342Z,98047.88
2023-04-06T21:09:06.571Z,98037.88
2023-04-06T21:11:35.861Z,98040.81
2023-04-06T21:14:07.207Z,98043.44
2023-04-06T21:16:36.748Z,98037.47
2023-04-06T21:19:06.000Z,98043.28
2023-04-06T21:21:35.437Z,98044.25
2023-04-06T21:24:04.917Z,98040.25
2023-04-06T21:26:35.292Z,98031.53
2023-04-06T21:29:05.282Z,98030.91
2023-04-06T21:31:41.385Z,98037.69
2023-04-06T21:34:19.684Z,98034.44
2023-04-06T21:36:49.188Z,98020.84
2023-04-06T21:39:20.939Z,98027.59
2023-04-06T21:41:51.184Z,98023.19
2023-04-06T21:44:28.527Z,98016.88
2023-04-06T21:46:59.913Z,98010.47
2023-04-06T21:49:32.437Z,98007.88
2023-04-06T21:52:04.235Z,98006.59
2023-04-06T21:54:34.062Z,98000.41
2023-04-06T21:57:03.361Z,97997.00
2023-04-06T21:59:33.262Z,97992.69
2023-04-06T22:02:05.948Z,97988.00
2023-04-06T22:04:35.957Z,97991.28
2023-04-06T22:07:08.598Z,97990.34
2023-04-06T22:09:42.246Z,97994.06
2023-04-06T22:12:17.199Z,97984.41
2023-04-06T22:14:52.825Z,97995.41
2023-04-06T22:17:22.131Z,97997.03
2023-04-06T22:19:53.208Z,97997.69
2023-04-06T22:22:47.516Z,97988.75
2023-04-06T22:25:16.958Z,97982.75
2023-04-06T22:27:46.253Z,97982.25
2023-04-06T22:30:15.565Z,97970.75
2023-04-06T22:32:44.858Z,97976.06
2023-04-06T22:35:14.218Z,97971.34
2023-04-06T22:37:44.301Z,97961.72
2023-04-06T22:40:13.945Z,97966.69
2023-04-06T22:42:43.436Z,97964.38
2023-04-06T22:45:12.661Z,97975.34
2023-04-06T22:47:43.818Z,97970.13
2023-04-06T22:50:13.313Z,97976.28
2023-04-06T22:52:42.604Z,97957.94
2023-04-06T22:55:11.894Z,97953.81
2023-04-06T22:57:41.674Z,97962.25
2023-04-06T23:00:11.917Z,97958.53
2023-04-06T23:02:41.194Z,97950.03
2023-04-06T23:05:10.567Z,97963.28
2023-04-06T23:07:39.815Z,97958.94
2023-04-06T23:10:09.623Z,97957.53
2023-04-06T23:12:38.866Z,97967.34
2023-04-06T23:15:08.737Z,97955.13
2023-04-06T23:17:38.233Z,97962.72
2023-04-06T23:20:08.125Z,97964.31
2023-04-06T23:22:37.422Z,97961.41
2023-04-06T23:25:08.103Z,97966.91
2023-04-06T23:27:37.561Z,97959.16
2023-04-06T23:30:08.414Z,97964.44
2023-04-06T23:32:37.751Z,97951.84
2023-04-06T23:35:07.685Z,97948.44
2023-04-06T23:37:37.022Z,97942.84
2023-04-06T23:40:06.968Z,97949.63
2023-04-06T23:42:36.273Z,97953.81
2023-04-06T23:45:06.314Z,97957.34
2023-04-06T23:47:35.917Z,97950.03
2023-04-06T23:50:05.779Z,97947.16
2023-04-06T23:52:35.040Z,97934.56
2023-04-06T23:55:05.356Z,97933.59
2023-04-06T23:57:34.585Z,97929.06
